Time;durP1;ratioP1;P1;durP2;ratioP2;P2;SDS_P1;SDS_P2;PMS_P1;PMS_P2;Temp;Humidity;BMP_temperature;BMP_pressure;BME280_temperature;BME280_humidity;BME280_pressure;Samples;Min_cycle;Max_cycle;Signal;HPM_P1;HPM_P2
2024/01/17 00:00:41;;;;;;;14.95;7.22;;;;;;;3.64;72.53;100145.19;4952321;28;99304;-71
2024/01/17 00:03:08;;;;;;;21.52;8.93;;;;;;;3.69;72.12;100143.38;4954049;28;99157;-70
2024/01/17 00:05:35;;;;;;;30.77;13.63;;;;;;;3.64;71.85;100140.84;4952191;28;96958;-71
2024/01/17 00:08:02;;;;;;;14.95;6.78;;;;;;;3.31;72.82;100144.00;4952833;28;96962;-70
2024/01/17 00:10:28;;;;;;;12.90;6.25;;;;;;;3.37;72.44;100147.38;4952331;28;99025;-71
2024/01/17 00:12:56;;;;;;;13.05;6.50;;;;;;;3.17;73.17;100136.38;4953146;28;98913;-71
2024/01/17 00:15:23;;;;;;;14.30;6.28;;;;;;;3.23;72.75;100136.28;4950946;28;98661;-71
2024/01/17 00:17:49;;;;;;;13.82;6.38;;;;;;;3.37;72.40;100131.69;4954533;28;98129;-71
2024/01/17 00:20:16;;;;;;;15.00;6.60;;;;;;;3.20;71.96;100126.75;4951003;28;97667;-71
2024/01/17 00:22:44;;;;;;;14.80;6.20;;;;;;;3.38;71.40;100135.19;4950768;28;99187;-71
2024/01/17 00:25:10;;;;;;;13.57;6.55;;;;;;;3.27;71.65;100140.59;4952910;28;97143;-71
2024/01/17 00:27:37;;;;;;;15.52;6.28;;;;;;;3.11;71.83;100134.72;4957655;28;97256;-71
2024/01/17 00:30:06;;;;;;;14.80;5.65;;;;;;;2.76;72.56;100127.38;4953859;28;98872;-71
2024/01/17 00:32:34;;;;;;;17.50;6.10;;;;;;;2.97;72.50;100128.84;4956457;28;98834;-71
2024/01/17 00:35:00;;;;;;;10.95;5.78;;;;;;;2.99;71.98;100124.47;4953728;28;97202;-71
2024/01/17 00:37:27;;;;;;;16.65;5.97;;;;;;;2.86;72.08;100122.91;4957809;28;98201;-71
2024/01/17 00:39:53;;;;;;;12.68;6.22;;;;;;;2.98;71.80;100111.44;4951768;28;98778;-71
2024/01/17 00:42:20;;;;;;;17.80;5.97;;;;;;;2.76;72.63;100122.16;4949084;28;100982;-71
2024/01/17 00:44:46;;;;;;;15.27;6.38;;;;;;;2.46;73.90;100108.69;4952529;28;96912;-71
2024/01/17 00:47:14;;;;;;;15.20;6.25;;;;;;;2.78;72.85;100115.19;4955031;28;96848;-72
2024/01/17 00:49:40;;;;;;;15.98;6.97;;;;;;;2.95;72.23;100119.31;4955033;28;98140;-72
2024/01/17 00:52:07;;;;;;;14.93;6.55;;;;;;;2.95;72.08;100116.72;4950832;28;99072;-72
2024/01/17 00:54:33;;;;;;;18.25;6.25;;;;;;;2.87;72.05;100115.94;4952197;28;98025;-70
2024/01/17 00:57:00;;;;;;;12.43;6.53;;;;;;;2.87;71.92;100115.94;4952368;28;96932;-72
2024/01/17 00:59:26;;;;;;;12.95;6.72;;;;;;;2.69;72.47;100125.75;4957347;28;97846;-71
2024/01/17 01:01:52;;;;;;;13.70;6.53;;;;;;;2.67;72.24;100117.09;4953652;28;99532;-71
2024/01/17 01:04:20;;;;;;;15.55;6.18;;;;;;;2.60;72.65;100115.44;4952072;28;97111;-70
2024/01/17 01:06:46;;;;;;;19.98;6.85;;;;;;;2.71;72.25;100117.91;4954413;28;97173;-71
2024/01/17 01:09:13;;;;;;;17.40;6.70;;;;;;;2.74;71.59;100123.94;4952457;28;99063;-70
2024/01/17 01:11:41;;;;;;;13.80;6.55;;;;;;;2.58;72.25;100116.34;4948292;28;98599;-71
2024/01/17 01:14:08;;;;;;;13.98;6.45;;;;;;;2.61;72.19;100116.31;4951617;28;96763;-70
2024/01/17 01:16:35;;;;;;;15.75;7.30;;;;;;;2.78;71.50;100115.19;4950450;28;96809;-71
2024/01/17 01:19:01;;;;;;;13.80;6.40;;;;;;;3.01;70.49;100108.78;4951115;28;97689;-70
2024/01/17 01:21:29;;;;;;;12.90;6.47;;;;;;;2.79;71.16;100110.84;4950631;28;99223;-70
2024/01/17 01:23:55;;;;;;;12.40;6.60;;;;;;;2.93;70.56;100098.47;4952894;28;96755;-71
2024/01/17 01:26:21;;;;;;;19.92;7.63;;;;;;;2.85;71.00;100102.06;4951743;28;96801;-71
2024/01/17 01:28:47;;;;;;;13.55;6.80;;;;;;;2.89;70.55;100098.53;4949465;28;98823;-71
2024/01/17 01:31:14;;;;;;;13.90;6.45;;;;;;;3.01;69.96;100103.56;4947738;28;99093;-71
2024/01/17 01:33:40;;;;;;;10.65;6.38;;;;;;;3.04;70.13;100093.94;4952250;28;97219;-71
2024/01/17 01:36:07;;;;;;;18.38;7.65;;;;;;;2.98;69.85;100094.03;4951985;28;97635;-71
2024/01/17 01:38:34;;;;;;;15.82;7.07;;;;;;;2.95;69.57;100098.44;4951321;28;99036;-71
2024/01/17 01:41:01;;;;;;;14.88;7.55;;;;;;;2.92;69.65;100095.88;4948698;28;101784;-71
2024/01/17 01:43:27;;;;;;;15.45;6.97;;;;;;;3.02;69.29;100087.03;4951582;28;96904;-71
2024/01/17 01:46:12;;;;;;;16.50;7.28;;;;;;;3.08;68.37;100086.94;4950546;28;97805;-72
2024/01/17 01:48:38;;;;;;;18.50;7.53;;;;;;;2.99;68.65;100087.06;4951365;28;98205;-71
2024/01/17 01:51:05;;;;;;;15.48;6.53;;;;;;;2.70;69.51;100080.50;4950950;28;98968;-72
2024/01/17 01:53:35;;;;;;;14.70;6.80;;;;;;;2.82;69.47;100079.50;4950730;28;97315;-72
2024/01/17 01:56:02;;;;;;;19.38;6.97;;;;;;;2.97;69.28;100088.81;4952480;28;98474;-70
2024/01/17 01:58:29;;;;;;;16.15;7.53;;;;;;;2.96;69.06;100084.47;4951083;28;99768;-71
2024/01/17 02:00:57;;;;;;;15.07;7.00;;;;;;;2.98;68.88;100086.19;4947514;28;98812;-71
2024/01/17 02:03:24;;;;;;;16.67;7.25;;;;;;;2.84;68.99;100087.28;4948351;28;97147;-70
2024/01/17 02:05:51;;;;;;;15.88;6.65;;;;;;;2.77;69.40;100091.72;4948483;28;97600;-71
2024/01/17 02:08:18;;;;;;;14.43;7.10;;;;;;;2.83;69.41;100082.94;4951325;28;99120;-70
2024/01/17 02:10:46;;;;;;;14.52;7.45;;;;;;;2.59;69.67;100077.19;4946802;28;99216;-70
2024/01/17 02:13:13;;;;;;;16.33;6.50;;;;;;;2.61;69.55;100070.22;4952220;28;98012;-71
2024/01/17 02:15:40;;;;;;;17.17;7.20;;;;;;;2.52;70.07;100061.66;4951783;28;97375;-70
2024/01/17 02:18:06;;;;;;;17.75;7.65;;;;;;;2.80;69.32;100058.63;4951075;28;99400;-70
2024/01/17 02:20:33;;;;;;;15.15;7.13;;;;;;;2.72;69.37;100052.66;4950477;28;98823;-70
2024/01/17 02:22:59;;;;;;;12.32;6.60;;;;;;;2.70;69.56;100045.72;4955959;28;97277;-69
2024/01/17 02:25:28;;;;;;;14.93;7.20;;;;;;;2.67;69.68;100045.78;4954272;28;96809;-71
2024/01/17 02:27:54;;;;;;;14.20;7.85;;;;;;;2.68;69.75;100047.53;4957300;28;99205;-71
2024/01/17 02:30:21;;;;;;;24.50;8.40;;;;;;;2.75;69.34;100049.16;4955664;28;98926;-71
2024/01/17 02:32:48;;;;;;;15.32;7.68;;;;;;;2.62;69.93;100034.56;4952108;28;97584;-71
2024/01/17 02:35:15;;;;;;;13.50;6.72;;;;;;;2.71;69.66;100035.28;4956186;28;97947;-71
2024/01/17 02:37:41;;;;;;;14.52;7.00;;;;;;;2.63;69.23;100036.28;4953103;28;98919;-71
2024/01/17 02:40:09;;;;;;;16.27;7.25;;;;;;;2.43;70.17;100033.94;4953702;28;98371;-71
2024/01/17 02:42:37;;;;;;;13.05;7.22;;;;;;;2.45;70.13;100026.09;4950054;28;97521;-70
2024/01/17 02:45:04;;;;;;;14.43;7.55;;;;;;;2.50;69.79;100024.28;4952594;28;98970;-71
2024/01/17 02:47:30;;;;;;;16.60;7.70;;;;;;;2.61;69.31;100022.41;4953611;28;98993;-71
2024/01/17 02:49:58;;;;;;;20.50;7.05;;;;;;;2.45;69.76;100026.97;4953546;28;99203;-71
2024/01/17 02:52:25;;;;;;;16.45;7.50;;;;;;;2.67;68.87;100017.97;4951948;28;98039;-71
2024/01/17 02:54:51;;;;;;;14.93;7.38;;;;;;;2.60;69.40;100018.06;4955235;28;97091;-70
2024/01/17 02:57:20;;;;;;;19.83;7.20;;;;;;;2.48;69.23;100008.69;4955214;28;99431;-71
2024/01/17 02:59:47;;;;;;;15.45;7.22;;;;;;;2.45;69.55;100010.47;4956329;28;99195;-71
2024/01/17 03:02:14;;;;;;;16.27;6.78;;;;;;;2.42;69.42;99995.75;4950013;28;97191;-71
2024/01/17 03:04:41;;;;;;;14.00;7.40;;;;;;;2.46;69.82;99992.19;4952157;28;96862;-71
2024/01/17 03:07:07;;;;;;;14.52;7.25;;;;;;;2.57;69.12;99992.88;4952096;28;99584;-71
2024/01/17 03:09:33;;;;;;;14.18;7.50;;;;;;;2.38;69.69;99987.09;4952713;28;99831;-72
2024/01/17 03:12:00;;;;;;;19.00;7.72;;;;;;;2.32;69.65;99994.13;4955946;28;97403;-71
2024/01/17 03:14:30;;;;;;;22.00;7.55;;;;;;;2.49;69.53;99986.94;4954363;28;97720;-71
2024/01/17 03:16:58;;;;;;;13.40;6.93;;;;;;;2.51;68.85;99984.28;4953771;28;99360;-71
2024/01/17 03:19:24;;;;;;;17.00;7.63;;;;;;;2.52;68.99;99981.66;4951589;28;101472;-71
2024/01/17 03:21:51;;;;;;;21.13;7.40;;;;;;;2.44;69.52;99986.13;4953992;28;96889;-71
2024/01/17 03:24:17;;;;;;;17.23;6.78;;;;;;;2.43;69.41;99984.41;4955893;28;96920;-71
2024/01/17 03:26:43;;;;;;;20.98;7.28;;;;;;;2.26;69.74;99978.56;4950878;28;99363;-71
2024/01/17 03:29:10;;;;;;;16.38;6.78;;;;;;;2.11;69.96;99969.22;4953654;28;98956;-71
2024/01/17 03:31:36;;;;;;;17.38;8.25;;;;;;;2.30;69.59;99962.00;4951568;28;96977;-71
2024/01/17 03:34:04;;;;;;;20.60;7.80;;;;;;;2.33;69.25;99960.22;4954138;28;97467;-71
2024/01/17 03:36:30;;;;;;;16.48;6.85;;;;;;;2.18;69.26;99959.56;4949633;28;99263;-71
2024/01/17 03:38:56;;;;;;;14.25;7.32;;;;;;;2.37;68.70;99958.41;4952548;28;99097;-71
2024/01/17 03:41:23;;;;;;;16.92;7.80;;;;;;;2.28;69.07;99940.31;4955158;28;96803;-71
2024/01/17 03:43:51;;;;;;;14.35;7.03;;;;;;;2.13;68.92;99945.75;4952514;28;97581;-71
2024/01/17 03:46:17;;;;;;;14.23;6.90;;;;;;;2.01;69.90;99938.97;4949592;28;98776;-71
2024/01/17 03:48:44;;;;;;;17.20;7.50;;;;;;;2.03;69.75;99933.75;4951921;28;99106;-71
2024/01/17 03:51:11;;;;;;;14.52;7.85;;;;;;;2.10;69.91;99936.22;4950477;28;97326;-72
2024/01/17 03:53:38;;;;;;;17.02;7.25;;;;;;;2.11;69.98;99926.66;4952804;28;96756;-72
2024/01/17 03:56:05;;;;;;;21.48;7.50;;;;;;;1.99;69.86;99923.34;4952343;28;99416;-72
2024/01/17 03:58:31;;;;;;;14.13;6.93;;;;;;;2.01;69.84;99915.50;4952679;28;99664;-71
2024/01/17 04:00:57;;;;;;;15.25;7.18;;;;;;;2.15;69.07;99917.94;4951125;28;97003;-71
2024/01/17 04:03:24;;;;;;;17.27;7.75;;;;;;;2.05;68.98;99917.19;4952009;28;97236;-71
2024/01/17 04:05:50;;;;;;;14.70;7.18;;;;;;;2.05;69.21;99911.97;4952720;28;98922;-71
2024/01/17 04:08:18;;;;;;;15.77;7.55;;;;;;;2.08;69.02;99905.88;4955417;28;98184;-72
2024/01/17 04:10:44;;;;;;;18.20;7.55;;;;;;;2.06;69.24;99898.06;4951795;28;97629;-71
2024/01/17 04:13:10;;;;;;;16.15;6.63;;;;;;;2.02;69.11;99890.31;4947000;28;96810;-71
2024/01/17 04:15:37;;;;;;;20.05;7.43;;;;;;;2.09;68.98;99897.16;4951872;28;98850;-72
2024/01/17 04:18:03;;;;;;;22.08;8.60;;;;;;;2.08;68.80;99891.09;4952419;28;99737;-70
2024/01/17 04:20:30;;;;;;;13.52;7.15;;;;;;;2.06;68.91;99891.97;4950410;28;96898;-71
2024/01/17 04:22:56;;;;;;;18.02;7.95;;;;;;;1.93;68.89;99892.16;4952303;28;96776;-70
2024/01/17 04:25:24;;;;;;;14.60;7.57;;;;;;;2.05;68.84;99888.50;4953061;28;99302;-71
2024/01/17 04:27:50;;;;;;;14.90;7.18;;;;;;;2.06;68.34;99895.47;4951104;28;98896;-71
2024/01/17 04:30:17;;;;;;;16.98;8.38;;;;;;;2.04;68.62;99892.00;4949734;28;96866;-72
2024/01/17 04:32:43;;;;;;;15.60;7.70;;;;;;;1.97;68.73;99883.41;4951136;28;97929;-71
2024/01/17 04:35:10;;;;;;;15.50;7.53;;;;;;;2.04;68.58;99878.97;4952196;28;97785;-72
2024/01/17 04:37:37;;;;;;;17.63;7.15;;;;;;;1.96;68.67;99873.91;4951131;28;99348;-71
2024/01/17 04:40:06;;;;;;;15.13;7.38;;;;;;;1.79;69.14;99872.41;4952102;28;97750;-70
2024/01/17 04:42:34;;;;;;;17.88;8.18;;;;;;;1.86;69.31;99880.09;4949696;28;97645;-73
2024/01/17 04:45:00;;;;;;;16.85;8.10;;;;;;;1.83;69.08;99874.97;4952685;28;99099;-74
2024/01/17 04:47:26;;;;;;;16.95;7.18;;;;;;;1.85;68.81;99867.09;4948999;28;99030;-74
2024/01/17 04:49:52;;;;;;;17.15;7.57;;;;;;;1.89;68.58;99855.78;4949813;28;97624;-73
2024/01/17 04:52:19;;;;;;;15.27;7.50;;;;;;;1.99;68.69;99844.31;4949179;28;96664;-74
2024/01/17 04:54:45;;;;;;;18.50;8.15;;;;;;;2.00;68.10;99844.28;4951953;28;98601;-73
2024/01/17 04:57:12;;;;;;;15.13;7.90;;;;;;;1.91;68.38;99839.22;4954734;28;98228;-74
2024/01/17 04:59:40;;;;;;;19.60;8.10;;;;;;;1.89;68.67;99830.59;4950064;28;97852;-74
2024/01/17 05:02:06;;;;;;;17.83;7.82;;;;;;;1.80;68.79;99832.44;4949427;28;97114;-74
2024/01/17 05:04:32;;;;;;;18.15;7.22;;;;;;;1.99;68.59;99826.06;4954084;28;101747;-74
2024/01/17 05:06:59;;;;;;;17.38;8.13;;;;;;;1.96;68.16;99819.19;4952612;28;98978;-74
2024/01/17 05:09:26;;;;;;;20.25;7.82;;;;;;;1.93;68.91;99810.53;4956181;28;97180;-74
2024/01/17 05:11:53;;;;;;;20.38;8.70;;;;;;;1.71;69.33;99820.41;4952762;28;98040;-73
2024/01/17 05:14:19;;;;;;;26.17;8.73;;;;;;;1.80;69.60;99812.47;4954855;28;98921;-74
2024/01/17 05:16:47;;;;;;;15.65;7.70;;;;;;;1.67;69.51;99812.66;4952161;28;99183;-74
2024/01/17 05:19:13;;;;;;;15.98;7.30;;;;;;;1.87;68.97;99801.06;4949050;28;98587;-74
2024/01/17 05:21:39;;;;;;;19.52;7.35;;;;;;;1.83;68.97;99796.81;4951201;28;97385;-74
2024/01/17 05:24:06;;;;;;;16.55;7.82;;;;;;;1.97;68.66;99807.84;4951520;28;98976;-74
2024/01/17 05:26:33;;;;;;;15.52;7.80;;;;;;;1.86;68.33;99794.13;4951023;28;99434;-76
2024/01/17 05:28:59;;;;;;;19.08;7.30;;;;;;;1.84;68.33;99795.91;4950899;28;97304;-74
2024/01/17 05:31:25;;;;;;;16.98;8.10;;;;;;;1.60;68.85;99788.47;4951083;28;97505;-73
2024/01/17 05:33:53;;;;;;;23.02;8.25;;;;;;;1.59;69.49;99790.19;4952193;28;102352;-74
2024/01/17 05:36:19;;;;;;;16.17;8.05;;;;;;;1.70;69.42;99789.19;4951956;28;97733;-74
2024/01/17 05:38:46;;;;;;;21.13;7.10;;;;;;;1.62;69.41;99786.69;4950606;28;97198;-74
2024/01/17 05:41:12;;;;;;;19.75;8.30;;;;;;;1.59;69.33;99781.53;4950042;28;97475;-75
2024/01/17 05:43:38;;;;;;;23.73;7.20;;;;;;;1.56;69.88;99776.38;4950791;28;99180;-74
2024/01/17 05:46:05;;;;;;;15.27;7.68;;;;;;;1.45;69.49;99779.13;4947057;28;98846;-75
2024/01/17 05:48:31;;;;;;;20.15;7.80;;;;;;;1.42;69.76;99780.91;4949869;28;97150;-74
2024/01/17 05:50:59;;;;;;;17.15;7.88;;;;;;;1.45;69.74;99778.25;4949115;28;98118;-73
2024/01/17 05:53:25;;;;;;;16.60;8.38;;;;;;;1.42;69.45;99770.50;4953529;28;99050;-74
2024/01/17 05:55:53;;;;;;;20.30;7.70;;;;;;;1.66;69.25;99764.94;4956068;28;99108;-74
2024/01/17 05:58:19;;;;;;;13.48;7.20;;;;;;;1.64;68.88;99758.03;4956441;28;96740;-74
2024/01/17 06:00:46;;;;;;;18.00;7.43;;;;;;;1.56;68.35;99759.00;4952523;28;97412;-74
2024/01/17 06:03:13;;;;;;;17.90;6.85;;;;;;;1.56;68.57;99761.63;4956381;28;99188;-74
2024/01/17 06:05:40;;;;;;;15.63;7.63;;;;;;;1.57;68.46;99749.47;4942537;28;98961;-75
2024/01/17 06:08:08;;;;;;;16.48;7.20;;;;;;;1.44;68.23;99751.38;4950432;28;96884;-73
2024/01/17 06:10:37;;;;;;;16.58;7.50;;;;;;;1.33;68.97;99737.63;4955680;28;97083;-73
2024/01/17 06:13:03;;;;;;;16.30;7.03;;;;;;;1.40;69.15;99739.28;4953218;28;99132;-74
2024/01/17 06:15:30;;;;;;;13.77;7.18;;;;;;;1.43;68.66;99733.19;4953519;28;99364;-74
2024/01/17 06:17:56;;;;;;;12.82;6.70;;;;;;;1.42;68.32;99731.44;4951929;28;97747;-75
2024/01/17 06:20:22;;;;;;;19.38;6.93;;;;;;;1.45;68.64;99734.00;4944253;28;99005;-74
2024/01/17 06:22:49;;;;;;;15.60;7.78;;;;;;;1.53;68.39;99730.41;4947356;28;99597;-75
2024/01/17 06:25:17;;;;;;;13.40;7.10;;;;;;;1.22;68.51;99725.66;4951036;28;98804;-75
2024/01/17 06:27:43;;;;;;;20.67;7.88;;;;;;;1.23;68.62;99727.41;4942212;28;97521;-74
2024/01/17 06:30:10;;;;;;;16.20;6.90;;;;;;;1.34;68.64;99709.88;4950072;28;96995;-74
2024/01/17 06:32:37;;;;;;;13.52;7.30;;;;;;;1.41;68.66;99714.09;4948829;28;99046;-74
2024/01/17 06:35:03;;;;;;;16.67;6.97;;;;;;;1.31;68.29;99703.00;4944946;28;97622;-74
2024/01/17 06:37:31;;;;;;;17.80;6.82;;;;;;;1.36;68.01;99705.50;4947861;28;97626;-75
2024/01/17 06:39:57;;;;;;;15.18;7.35;;;;;;;1.31;67.79;99696.91;4949251;28;97940;-75
2024/01/17 06:42:25;;;;;;;17.40;7.38;;;;;;;1.23;68.47;99688.34;4942561;28;99176;-75
2024/01/17 06:44:51;;;;;;;12.68;6.18;;;;;;;1.17;68.83;99689.31;4941890;28;101459;-72
2024/01/17 06:47:18;;;;;;;18.75;7.10;;;;;;;1.14;68.46;99687.59;4942900;28;97523;-74
2024/01/17 06:49:44;;;;;;;12.70;6.38;;;;;;;1.43;68.07;99687.19;4942199;28;100891;-74
2024/01/17 06:52:10;;;;;;;18.48;6.88;;;;;;;1.34;68.01;99681.25;4948165;28;98933;-72
2024/01/17 06:54:37;;;;;;;15.10;6.50;;;;;;;1.31;67.65;99673.50;4949327;28;102133;-75
2024/01/17 06:57:04;;;;;;;15.30;6.60;;;;;;;1.47;67.67;99672.38;4947685;28;97695;-75
2024/01/17 06:59:32;;;;;;;12.50;6.65;;;;;;;1.42;67.37;99674.19;4951556;28;97906;-76
2024/01/17 07:01:57;;;;;;;12.02;6.28;;;;;;;1.44;67.18;99667.22;4949945;28;98804;-75
2024/01/17 07:04:24;;;;;;;12.38;5.63;;;;;;;1.40;66.87;99655.13;4952215;28;100946;-75
2024/01/17 07:06:50;;;;;;;14.50;6.30;;;;;;;1.53;66.71;99654.03;4948482;28;97218;-74
2024/01/17 07:09:17;;;;;;;21.42;6.53;;;;;;;1.34;66.39;99650.00;4950728;28;98069;-75
2024/01/17 07:11:43;;;;;;;13.20;6.55;;;;;;;1.32;67.28;99644.81;4949157;28;98949;-74
2024/01/17 07:14:10;;;;;;;15.88;7.35;;;;;;;1.48;66.80;99638.50;4951197;28;98884;-74
2024/01/17 07:16:38;;;;;;;17.67;6.68;;;;;;;1.36;67.04;99628.28;4948561;28;96746;-73
2024/01/17 07:19:04;;;;;;;18.95;6.68;;;;;;;1.37;66.96;99631.75;4949678;28;96729;-74
2024/01/17 07:21:30;;;;;;;13.60;6.82;;;;;;;1.35;66.81;99630.91;4950599;28;99293;-73
2024/01/17 07:23:57;;;;;;;12.77;6.45;;;;;;;1.26;66.76;99618.03;4950193;28;99211;-73
2024/01/17 07:26:23;;;;;;;15.73;7.15;;;;;;;1.26;67.26;99615.44;4950795;28;99214;-73
2024/01/17 07:28:49;;;;;;;16.38;6.97;;;;;;;1.34;67.16;99603.16;4951073;28;97785;-73
2024/01/17 07:31:16;;;;;;;18.95;7.30;;;;;;;1.38;66.22;99602.25;4950933;28;99168;-75
2024/01/17 07:33:44;;;;;;;18.80;7.15;;;;;;;1.29;66.44;99594.56;4949372;28;99848;-73
2024/01/17 07:36:10;;;;;;;15.80;7.50;;;;;;;1.45;66.50;99589.06;4950228;28;96805;-74
2024/01/17 07:38:37;;;;;;;16.10;7.53;;;;;;;1.37;66.30;99587.50;4951535;28;96853;-74
2024/01/17 07:41:04;;;;;;;22.13;7.60;;;;;;;1.57;66.10;99585.44;4949968;28;98932;-74
2024/01/17 07:43:31;;;;;;;19.50;8.50;;;;;;;1.49;66.08;99567.31;4951335;28;98734;-74
2024/01/17 07:45:58;;;;;;;16.52;7.53;;;;;;;1.50;65.56;99568.19;4949802;28;97088;-73
2024/01/17 07:48:24;;;;;;;17.10;8.23;;;;;;;1.49;65.77;99566.47;4951579;28;96828;-74
2024/01/17 07:50:52;;;;;;;19.35;7.55;;;;;;;1.51;65.90;99565.53;4947279;28;98897;-74
2024/01/17 07:53:19;;;;;;;18.55;8.45;;;;;;;1.61;65.48;99566.25;4949398;28;99389;-75
2024/01/17 07:55:45;;;;;;;17.50;7.63;;;;;;;1.80;64.17;99572.84;4950530;28;97188;-74
2024/01/17 07:58:12;;;;;;;16.90;7.22;;;;;;;1.58;64.40;99566.28;4951358;28;97701;-74
2024/01/17 08:00:39;;;;;;;17.00;7.32;;;;;;;1.58;64.69;99567.16;4949950;28;98891;-75
2024/01/17 08:03:05;;;;;;;20.20;7.75;;;;;;;1.81;63.83;99553.72;4950244;28;98858;-74
2024/01/17 08:05:33;;;;;;;19.25;7.55;;;;;;;1.75;63.60;99545.16;4951056;28;97066;-74
2024/01/17 08:08:00;;;;;;;20.58;7.70;;;;;;;1.64;63.63;99537.56;4950249;28;96853;-73
2024/01/17 08:10:27;;;;;;;13.82;7.63;;;;;;;1.63;63.90;99535.84;4949961;28;98986;-74
2024/01/17 08:12:54;;;;;;;18.50;7.18;;;;;;;1.79;63.47;99532.03;4950483;28;101453;-74
2024/01/17 08:15:21;;;;;;;13.13;7.00;;;;;;;1.95;62.63;99524.78;4951708;28;97205;-75
2024/01/17 08:17:47;;;;;;;13.38;6.53;;;;;;;1.93;62.18;99527.44;4952171;28;97255;-75
2024/01/17 08:20:16;;;;;;;20.80;7.07;;;;;;;2.02;62.47;99512.50;4949142;28;98702;-74
2024/01/17 08:22:43;;;;;;;15.77;7.72;;;;;;;1.96;62.28;99516.97;4950798;28;98578;-74
2024/01/17 08:25:11;;;;;;;17.75;7.18;;;;;;;1.81;62.09;99517.25;4951046;28;96834;-74
2024/01/17 08:27:38;;;;;;;17.50;6.63;;;;;;;2.27;61.41;99506.75;4949828;28;96791;-74
2024/01/17 08:30:09;;;;;;;15.73;7.28;;;;;;;2.08;61.61;99507.16;4949286;28;98828;-74
2024/01/17 08:32:36;;;;;;;17.90;6.97;;;;;;;2.20;61.49;99505.16;4950891;28;98825;-74
2024/01/17 08:35:02;;;;;;;14.93;7.05;;;;;;;2.28;60.98;99503.25;4950638;28;96733;-74
2024/01/17 08:37:29;;;;;;;15.93;7.18;;;;;;;2.30;60.56;99496.22;4945101;28;97916;-73
2024/01/17 08:39:55;;;;;;;18.80;7.55;;;;;;;2.42;60.72;99496.88;4947559;28;98793;-73
2024/01/17 08:42:23;;;;;;;11.98;6.80;;;;;;;2.64;59.43;99492.88;4945258;28;100223;-73
2024/01/17 08:44:50;;;;;;;13.10;6.63;;;;;;;2.90;58.79;99492.25;4948817;28;96781;-73
2024/01/17 08:47:16;;;;;;;17.25;6.70;;;;;;;2.81;58.68;99477.69;4945666;28;97303;-73
2024/01/17 08:49:42;;;;;;;15.77;6.53;;;;;;;2.70;58.84;99482.28;4948384;28;98845;-73
2024/01/17 08:52:09;;;;;;;12.32;6.68;;;;;;;2.67;59.14;99469.34;4943536;28;98942;-73
2024/01/17 08:54:35;;;;;;;12.98;6.75;;;;;;;2.79;58.57;99463.81;4948675;28;96788;-73
2024/01/17 08:57:02;;;;;;;13.82;7.07;;;;;;;2.96;58.19;99461.63;4947438;28;97594;-73
2024/01/17 08:59:31;;;;;;;14.07;7.32;;;;;;;2.68;58.28;99455.41;4947528;28;99005;-73
2024/01/17 09:01:57;;;;;;;19.17;6.82;;;;;;;2.64;58.27;99462.44;4946961;28;101453;-73
2024/01/17 09:04:24;;;;;;;11.32;6.32;;;;;;;2.64;58.62;99454.59;4950641;28;97353;-76
2024/01/17 09:06:51;;;;;;;14.32;5.88;;;;;;;2.72;58.14;99457.91;4949660;28;97833;-74
2024/01/17 09:09:17;;;;;;;15.50;6.13;;;;;;;2.84;57.95;99450.66;4947518;28;98962;-73
2024/01/17 09:11:43;;;;;;;12.80;5.88;;;;;;;2.91;57.28;99452.22;4946453;28;98916;-73
2024/01/17 09:14:10;;;;;;;15.38;6.70;;;;;;;2.88;58.04;99444.50;4951314;28;96806;-73
2024/01/17 09:16:38;;;;;;;11.70;5.82;;;;;;;2.73;57.63;99449.19;4948841;28;97692;-73
2024/01/17 09:19:04;;;;;;;14.27;5.82;;;;;;;2.60;57.66;99439.06;4946115;28;99025;-74
2024/01/17 09:21:31;;;;;;;14.70;5.88;;;;;;;2.62;57.63;99438.16;4946905;28;98170;-72
2024/01/17 09:23:58;;;;;;;13.45;6.50;;;;;;;2.87;57.72;99440.16;4945412;28;96738;-73
2024/01/17 09:26:24;;;;;;;17.52;7.07;;;;;;;2.94;57.00;99429.53;4947141;28;96975;-73
2024/01/17 09:28:50;;;;;;;16.45;5.93;;;;;;;3.07;56.54;99436.16;4946931;28;99217;-73
2024/01/17 09:31:17;;;;;;;15.38;6.95;;;;;;;3.13;56.57;99435.13;4948705;28;99094;-73
2024/01/17 09:33:44;;;;;;;12.13;5.93;;;;;;;3.09;57.17;99425.66;4948214;28;98559;-73
2024/01/17 09:36:11;;;;;;;12.07;7.00;;;;;;;3.23;56.90;99426.16;4949215;28;96774;-73
2024/01/17 09:38:37;;;;;;;11.43;5.47;;;;;;;3.31;56.17;99411.13;4946114;28;99268;-73
2024/01/17 09:41:04;;;;;;;17.60;6.18;;;;;;;3.33;56.40;99413.72;4944602;28;102736;-73
2024/01/17 09:43:31;;;;;;;14.68;6.00;;;;;;;3.30;55.67;99412.03;4946752;28;96748;-72
2024/01/17 09:46:00;;;;;;;17.52;6.18;;;;;;;3.33;56.16;99411.09;4941211;28;99343;-73
2024/01/17 09:48:27;;;;;;;11.00;6.10;;;;;;;3.21;55.34;99404.47;4951702;28;99410;-73
2024/01/17 09:50:57;;;;;;;12.07;6.32;;;;;;;3.26;55.30;99399.97;4947402;28;97721;-73
2024/01/17 09:53:28;;;;;;;16.52;6.70;;;;;;;3.36;55.90;99388.38;4940959;28;97481;-73
2024/01/17 09:55:58;;;;;;;15.10;6.43;;;;;;;3.56;54.87;99382.56;4941125;28;97020;-73
2024/01/17 09:58:27;;;;;;;16.67;6.00;;;;;;;3.60;55.21;99385.06;4947318;28;99405;-74
2024/01/17 10:00:55;;;;;;;13.57;6.50;;;;;;;3.48;55.60;99379.31;4945472;28;98854;-74
2024/01/17 10:03:25;;;;;;;13.93;6.18;;;;;;;3.28;55.77;99366.00;4948961;28;97551;-74
2024/01/17 10:05:54;;;;;;;12.25;6.47;;;;;;;3.41;56.64;99364.75;4945809;28;98403;-73
2024/01/17 10:08:22;;;;;;;16.27;6.15;;;;;;;3.55;55.91;99366.03;4947808;28;99081;-75
2024/01/17 10:10:49;;;;;;;10.68;6.13;;;;;;;3.68;54.64;99357.84;4945718;28;99725;-74
2024/01/17 10:13:15;;;;;;;14.30;6.55;;;;;;;3.76;54.80;99348.03;4946642;28;96845;-74
2024/01/17 10:15:42;;;;;;;14.57;6.15;;;;;;;3.81;54.44;99349.59;4944769;28;97994;-74
2024/01/17 10:18:09;;;;;;;11.85;6.55;;;;;;;3.87;54.86;99340.75;4942906;28;100835;-74
2024/01/17 10:20:36;;;;;;;16.58;7.15;;;;;;;3.87;53.91;99332.91;4948529;28;99286;-74
2024/01/17 10:23:03;;;;;;;12.27;6.35;;;;;;;3.79;54.19;99321.81;4945345;28;97856;-74
2024/01/17 10:25:37;;;;;;;14.50;6.78;;;;;;;3.89;54.11;99315.41;4945961;28;97008;-74
2024/01/17 10:28:04;;;;;;;16.85;7.38;;;;;;;3.63;54.75;99320.56;4941220;28;101453;-73
2024/01/17 10:30:31;;;;;;;15.35;6.97;;;;;;;3.69;55.04;99307.31;4943653;28;98862;-73
2024/01/17 10:32:58;;;;;;;11.27;7.28;;;;;;;3.85;55.14;99304.19;4944618;28;100315;-73
2024/01/17 10:35:24;;;;;;;15.25;7.10;;;;;;;4.18;54.72;99291.81;4942986;28;96929;-73
2024/01/17 10:37:51;;;;;;;15.77;7.05;;;;;;;4.13;54.98;99291.13;4946832;28;99452;-74
2024/01/17 10:40:19;;;;;;;15.85;6.85;;;;;;;4.30;53.72;99280.94;4947527;28;99332;-74
2024/01/17 10:42:47;;;;;;;14.80;7.18;;;;;;;4.54;53.43;99278.41;4951928;28;97061;-73
2024/01/17 10:45:20;;;;;;;13.75;7.05;;;;;;;4.55;53.28;99267.03;4953927;28;97324;-74
2024/01/17 10:47:47;;;;;;;15.13;7.20;;;;;;;4.57;52.76;99267.84;4950066;28;99631;-74
2024/01/17 10:50:13;;;;;;;13.45;7.10;;;;;;;4.50;52.83;99261.13;4948593;28;102059;-74
2024/01/17 10:52:41;;;;;;;17.70;7.35;;;;;;;4.67;52.84;99253.53;4948090;28;96794;-74
2024/01/17 10:55:10;;;;;;;14.10;7.20;;;;;;;4.67;52.53;99245.66;4951727;28;96915;-74
2024/01/17 10:57:41;;;;;;;14.95;6.90;;;;;;;4.79;52.45;99242.66;4951175;28;98893;-74
2024/01/17 11:00:14;;;;;;;17.70;7.85;;;;;;;4.60;52.82;99238.94;4951860;28;98954;-73
2024/01/17 11:02:42;;;;;;;18.40;7.22;;;;;;;4.89;51.51;99232.69;4942217;28;99429;-73
2024/01/17 11:05:11;;;;;;;15.77;7.75;;;;;;;4.75;52.06;99225.34;4947251;28;96961;-72
2024/01/17 11:07:38;;;;;;;17.15;7.25;;;;;;;4.80;51.92;99229.47;4946204;28;98863;-73
2024/01/17 11:10:05;;;;;;;15.25;7.07;;;;;;;4.81;52.52;99219.88;4947300;28;98799;-73
2024/01/17 11:12:33;;;;;;;17.45;7.63;;;;;;;4.77;52.96;99207.81;4949063;28;97060;-73
2024/01/17 11:15:00;;;;;;;16.92;8.20;;;;;;;4.90;52.08;99201.22;4950427;28;97168;-74
2024/01/17 11:17:30;;;;;;;12.77;7.20;;;;;;;5.03;52.57;99189.41;4948369;28;99183;-73
2024/01/17 11:19:58;;;;;;;18.48;7.97;;;;;;;5.01;52.39;99185.97;4949644;28;98999;-74
2024/01/17 11:22:25;;;;;;;14.48;7.05;;;;;;;5.19;51.76;99174.78;4950711;28;96720;-72
2024/01/17 11:24:58;;;;;;;16.58;7.45;;;;;;;5.39;51.02;99176.63;4949174;28;97506;-72
2024/01/17 11:27:30;;;;;;;15.18;7.55;;;;;;;5.27;51.58;99157.94;4944230;28;99526;-72
2024/01/17 11:30:05;;;;;;;18.90;8.02;;;;;;;5.20;51.89;99152.06;4947044;28;99772;-73